Arrey, New Mexico
Current Conditions -  °F | °C
As of 2:53 PM on Sunday 23 Nov 2014 (Local Time) from KTCS Reporting Station
Clear Clear  
Wind Chill: 57°   Ceiling: Unl
Heat Index: 57°   Visibility: 10mi
Dew Point:   Wind: 23mph
Humidity: 11%   Direction: 310°NW
Pressure: 29.84"   Gusts: 38mph
Location:  32.79°N, 107.32°W
Report Text: KTCS 232153Z AUTO 31020G33KT 10SM CLR 14/M17 A2984 RMK AO2 PK WND 29044/2124 SLP067 T01391167 TSNO
Loading
Personal Weather Stations






























Interactive Weather Map New forecast layout! Learn more

10-Day Weather Forecast

Advertisements
Track Severe Weather on mobile